TimeCDT,TemperatureF,Dew PointF,Humidity,Sea Level PressureIn,VisibilityMPH,Wind Direction,Wind SpeedMPH,Gust SpeedMPH,PrecipitationIn,Events,Conditions,WindDirDegrees,DateUTC
12:15 AM,44.6,44.6,100,29.97,5.0,NE,10.4,-,N/A,,Overcast,40,2013-04-17 05:15:00
12:35 AM,44.6,44.6,100,29.98,7.0,NE,11.5,-,N/A,,Overcast,40,2013-04-17 05:35:00
12:55 AM,44.6,44.6,100,29.98,7.0,NE,9.2,-,N/A,,Overcast,40,2013-04-17 05:55:00
1:15 AM,44.6,44.6,100,29.97,7.0,NE,11.5,-,N/A,,Overcast,40,2013-04-17 06:15:00
1:35 AM,44.6,44.6,100,29.97,7.0,NE,15.0,-,N/A,,Overcast,50,2013-04-17 06:35:00
1:55 AM,44.6,44.6,100,29.97,5.0,NE,11.5,16.1,N/A,,Overcast,40,2013-04-17 06:55:00
2:15 AM,44.6,44.6,100,29.96,5.0,NE,10.4,-,N/A,,Overcast,50,2013-04-17 07:15:00
2:35 AM,46.4,44.6,93,29.95,5.0,NE,11.5,-,N/A,,Overcast,50,2013-04-17 07:35:00
2:55 AM,46.4,44.6,93,29.94,5.0,NE,10.4,-,N/A,,Overcast,40,2013-04-17 07:55:00
3:15 AM,46.4,44.6,93,29.94,5.0,ENE,10.4,-,N/A,,Overcast,60,2013-04-17 08:15:00
3:35 AM,46.4,44.6,93,29.93,5.0,ENE,6.9,-,N/A,,Overcast,60,2013-04-17 08:35:00
3:55 AM,46.4,44.6,93,29.92,7.0,ENE,8.1,-,N/A,,Overcast,70,2013-04-17 08:55:00
4:15 AM,46.4,44.6,93,29.90,7.0,East,10.4,-,N/A,,Overcast,80,2013-04-17 09:15:00
4:35 AM,46.4,44.6,93,29.89,7.0,East,9.2,-,N/A,,Overcast,90,2013-04-17 09:35:00
4:55 AM,46.4,44.6,93,29.88,7.0,ESE,10.4,-,N/A,,Overcast,110,2013-04-17 09:55:00
5:15 AM,48.2,44.6,87,29.88,7.0,East,4.6,-,N/A,,Overcast,90,2013-04-17 10:15:00
5:35 AM,48.2,46.4,93,29.88,7.0,East,4.6,-,N/A,,Overcast,100,2013-04-17 10:35:00
5:55 AM,48.2,46.4,93,29.87,7.0,East,4.6,-,N/A,,Overcast,80,2013-04-17 10:55:00
6:15 AM,48.2,46.4,93,29.87,7.0,East,4.6,-,N/A,,Overcast,100,2013-04-17 11:15:00
6:35 AM,48.2,46.4,93,29.87,7.0,Calm,Calm,-,N/A,,Overcast,0,2013-04-17 11:35:00
6:55 AM,50.0,46.4,87,29.86,7.0,Calm,Calm,-,N/A,,Overcast,0,2013-04-17 11:55:00
7:15 AM,50.0,46.4,87,29.86,5.0,Calm,Calm,-,N/A,,Overcast,0,2013-04-17 12:15:00
7:35 AM,50.0,46.4,87,29.86,5.0,NE,3.5,-,N/A,,Overcast,50,2013-04-17 12:35:00
7:55 AM,50.0,46.4,87,29.86,5.0,NE,4.6,-,N/A,,Overcast,40,2013-04-17 12:55:00
8:15 AM,50.0,48.2,94,29.86,4.0,NE,3.5,-,N/A,,Light Drizzle,50,2013-04-17 13:15:00
8:35 AM,50.0,50.0,100,29.86,4.0,Calm,Calm,-,N/A,,Light Drizzle,0,2013-04-17 13:35:00
9:15 AM,51.8,50.0,94,29.85,5.0,ESE,3.5,-,N/A,,Overcast,110,2013-04-17 14:15:00
9:35 AM,53.6,51.8,94,29.84,5.0,SE,3.5,-,N/A,,Overcast,130,2013-04-17 14:35:00
9:55 AM,55.4,53.6,94,29.84,5.0,Calm,Calm,-,N/A,,Overcast,0,2013-04-17 14:55:00
10:15 AM,59.0,55.4,88,29.83,7.0,South,6.9,-,N/A,,Overcast,170,2013-04-17 15:15:00
10:35 AM,60.8,59.0,94,29.82,7.0,South,6.9,-,N/A,,Overcast,170,2013-04-17 15:35:00
10:55 AM,64.4,62.6,94,29.81,7.0,South,4.6,-,N/A,,Overcast,180,2013-04-17 15:55:00
11:15 AM,69.8,64.4,83,29.81,7.0,South,11.5,-,N/A,,Overcast,180,2013-04-17 16:15:00
11:35 AM,71.6,68.0,88,29.80,7.0,South,15.0,20.7,N/A,,Overcast,180,2013-04-17 16:35:00
11:55 AM,73.4,68.0,83,29.79,10.0,South,21.9,26.5,N/A,,Overcast,180,2013-04-17 16:55:00
12:15 PM,73.4,68.0,83,29.79,10.0,South,18.4,28.8,N/A,,Overcast,180,2013-04-17 17:15:00
12:35 PM,73.4,68.0,83,29.78,10.0,South,18.4,27.6,N/A,,Overcast,170,2013-04-17 17:35:00
12:55 PM,73.4,68.0,83,29.77,10.0,South,20.7,25.3,N/A,,Overcast,180,2013-04-17 17:55:00
1:15 PM,73.4,66.2,78,29.76,10.0,South,20.7,-,N/A,,Overcast,180,2013-04-17 18:15:00
1:35 PM,73.4,66.2,78,29.75,7.0,South,24.2,28.8,N/A,,Overcast,170,2013-04-17 18:35:00
1:55 PM,75.2,66.2,73,29.73,10.0,South,18.4,28.8,N/A,,Mostly Cloudy,170,2013-04-17 18:55:00
2:15 PM,75.2,66.2,73,29.72,10.0,South,17.3,27.6,N/A,,Mostly Cloudy,170,2013-04-17 19:15:00
2:35 PM,73.4,64.4,73,29.72,10.0,South,21.9,26.5,N/A,,Overcast,170,2013-04-17 19:35:00
2:55 PM,73.4,64.4,73,29.71,10.0,South,16.1,24.2,N/A,,Overcast,170,2013-04-17 19:55:00
3:35 PM,73.4,64.4,73,29.68,10.0,South,17.3,27.6,N/A,,Overcast,170,2013-04-17 20:35:00
3:55 PM,73.4,64.4,73,29.67,10.0,South,13.8,-,N/A,,Overcast,170,2013-04-17 20:55:00
4:15 PM,77.0,64.4,65,29.66,10.0,South,18.4,25.3,N/A,,Overcast,180,2013-04-17 21:15:00
4:35 PM,77.0,64.4,65,29.65,10.0,South,20.7,28.8,N/A,,Overcast,180,2013-04-17 21:35:00
4:55 PM,77.0,64.4,65,29.65,10.0,South,25.3,32.2,N/A,,Overcast,180,2013-04-17 21:55:00
5:15 PM,77.0,62.6,61,29.65,10.0,South,20.7,31.1,N/A,,Overcast,190,2013-04-17 22:15:00
5:35 PM,77.0,64.4,65,29.65,10.0,South,21.9,31.1,N/A,,Overcast,180,2013-04-17 22:35:00
5:55 PM,77.0,64.4,65,29.64,10.0,South,17.3,27.6,N/A,,Overcast,180,2013-04-17 22:55:00
6:15 PM,77.0,64.4,65,29.63,10.0,South,18.4,31.1,N/A,,Mostly Cloudy,180,2013-04-17 23:15:00
6:35 PM,77.0,62.6,61,29.63,10.0,South,23.0,26.5,N/A,,Mostly Cloudy,190,2013-04-17 23:35:00
6:55 PM,77.0,62.6,61,29.63,10.0,South,16.1,28.8,N/A,,Overcast,190,2013-04-17 23:55:00
7:15 PM,77.0,62.6,61,29.62,10.0,South,16.1,24.2,N/A,,Overcast,190,2013-04-18 00:15:00
7:35 PM,71.6,59.0,64,29.64,10.0,WNW,10.4,19.6,N/A,,Overcast,300,2013-04-18 00:35:00
7:55 PM,55.4,53.6,94,29.65,10.0,NW,13.8,-,N/A,Thunderstorm,Overcast,320,2013-04-18 00:55:00
8:15 PM,55.4,51.8,88,29.66,10.0,NNW,13.8,-,N/A,Thunderstorm,Overcast,340,2013-04-18 01:15:00
8:35 PM,53.6,50.0,88,29.66,10.0,NNW,11.5,-,N/A,Thunderstorm,Overcast,340,2013-04-18 01:35:00
8:55 PM,51.8,50.0,94,29.67,10.0,NNW,10.4,-,N/A,Rain,Light Rain,330,2013-04-18 01:55:00
9:15 PM,51.8,50.0,94,29.68,10.0,NNW,10.4,-,N/A,Rain,Light Rain,330,2013-04-18 02:15:00
9:55 PM,50.0,50.0,100,29.72,10.0,WNW,11.5,-,N/A,Rain-Thunderstorm,Light Thunderstorms and Rain,290,2013-04-18 02:55:00
10:15 PM,50.0,48.2,94,29.65,7.0,North,16.1,20.7,N/A,Rain-Thunderstorm,Thunderstorms and Rain,360,2013-04-18 03:15:00
10:35 PM,50.0,50.0,100,29.68,10.0,Calm,Calm,-,N/A,Rain-Thunderstorm,Thunderstorms and Rain,0,2013-04-18 03:35:00
10:55 PM,50.0,50.0,100,29.67,4.0,WNW,17.3,-,N/A,Rain-Thunderstorm,Heavy Thunderstorms and Rain,300,2013-04-18 03:55:00
11:15 PM,51.8,51.8,100,29.69,4.0,Calm,Calm,-,N/A,Rain-Thunderstorm,Thunderstorms and Rain,0,2013-04-18 04:15:00
11:35 PM,51.8,51.8,100,29.62,5.0,ENE,11.5,-,N/A,Rain-Thunderstorm,Rain,70,2013-04-18 04:35:00
11:55 PM,53.6,53.6,100,29.57,7.0,SE,19.6,24.2,N/A,Rain-Thunderstorm,Light Thunderstorms and Rain,140,2013-04-18 04:55:00